Time;durP1;ratioP1;P1;durP2;ratioP2;P2;SDS_P1;SDS_P2;PMS_P1;PMS_P2;Temp;Humidity;BMP_temperature;BMP_pressure;BME280_temperature;BME280_humidity;BME280_pressure;Samples;Min_cycle;Max_cycle;Signal;HPM_P1;HPM_P2
2022/12/10 00:01:15;;;;;;;11.48;7.07;;;;;;;1.87;100.00;97310.03;4947998;28;20074;-84
2022/12/10 00:04:00;;;;;;;9.05;5.47;;;;;;;1.88;100.00;97311.72;4936486;28;20128;-84
2022/12/10 00:06:45;;;;;;;9.82;6.07;;;;;;;1.83;100.00;97310.22;4948130;28;20051;-82
2022/12/10 00:09:30;;;;;;;8.98;6.88;;;;;;;1.86;100.00;97321.28;4936233;28;20039;-84
2022/12/10 00:12:16;;;;;;;9.93;6.60;;;;;;;1.72;100.00;97318.56;4953196;28;20062;-84
2022/12/10 00:15:01;;;;;;;8.75;6.32;;;;;;;1.86;100.00;97323.88;4947780;28;20069;-83
2022/12/10 00:17:46;;;;;;;8.73;6.22;;;;;;;1.69;100.00;97325.66;4949078;28;20039;-84
2022/12/10 00:20:30;;;;;;;8.82;6.38;;;;;;;1.75;100.00;97333.03;4934701;28;20117;-83
2022/12/10 00:23:15;;;;;;;9.50;5.70;;;;;;;1.80;100.00;97325.88;4954855;28;20039;-83
2022/12/10 00:26:15;;;;;;;10.88;6.93;;;;;;;1.81;100.00;97330.13;4951486;28;20035;-83
2022/12/10 00:29:02;;;;;;;11.60;6.38;;;;;;;2.03;100.00;97341.84;4932561;28;20063;-84
2022/12/10 00:31:47;;;;;;;12.52;8.05;;;;;;;1.88;100.00;97347.88;4947218;28;20134;-83
2022/12/10 00:34:32;;;;;;;14.32;9.10;;;;;;;1.73;100.00;97352.94;4949751;28;20058;-83
2022/12/10 00:37:16;;;;;;;12.70;8.35;;;;;;;1.72;100.00;97353.88;4948390;28;20055;-83
2022/12/10 00:40:01;;;;;;;11.50;7.97;;;;;;;1.81;100.00;97357.72;4947812;28;20054;-83
2022/12/10 00:42:45;;;;;;;13.30;7.88;;;;;;;1.82;100.00;97367.97;4919119;28;20106;-85
2022/12/10 00:45:31;;;;;;;13.65;8.23;;;;;;;1.89;100.00;97355.53;4932825;28;20055;-83
2022/12/10 00:48:15;;;;;;;14.13;9.55;;;;;;;1.68;100.00;97353.19;4945581;28;20061;-82
2022/12/10 00:51:12;;;;;;;15.00;9.77;;;;;;;1.57;100.00;97356.38;4944741;28;20178;-84
2022/12/10 00:53:58;;;;;;;14.55;9.30;;;;;;;1.59;100.00;97351.97;4945339;28;20051;-84
2022/12/10 00:56:43;;;;;;;14.93;9.60;;;;;;;1.74;100.00;97362.38;4930527;28;20101;-86
2022/12/10 00:59:28;;;;;;;14.00;8.27;;;;;;;1.86;100.00;97357.47;4929861;28;20051;-86
2022/12/10 01:02:14;;;;;;;14.48;9.00;;;;;;;1.72;100.00;97371.94;4936624;28;20078;-87
2022/12/10 01:04:59;;;;;;;13.88;8.60;;;;;;;1.77;100.00;97367.38;4935528;28;20043;-83
2022/12/10 01:07:43;;;;;;;15.18;10.25;;;;;;;1.78;100.00;97369.03;4948919;28;20070;-83
2022/12/10 01:10:28;;;;;;;14.05;9.18;;;;;;;1.56;100.00;97371.97;4947551;28;20109;-83
2022/12/10 01:13:13;;;;;;;12.07;8.35;;;;;;;1.69;100.00;97370.38;4952539;28;20074;-82
2022/12/10 01:16:01;;;;;;;14.38;9.93;;;;;;;1.59;100.00;97369.22;4937644;28;20046;-83
2022/12/10 01:18:47;;;;;;;13.68;8.52;;;;;;;1.56;100.00;97384.88;4949080;28;20055;-84
2022/12/10 01:21:32;;;;;;;14.30;9.30;;;;;;;1.77;100.00;97380.28;4945866;28;20059;-83
2022/12/10 01:24:16;;;;;;;13.15;9.00;;;;;;;1.66;100.00;97374.88;4943828;28;20047;-83
2022/12/10 01:27:02;;;;;;;12.35;9.23;;;;;;;1.45;100.00;97382.88;4933063;28;20125;-83
2022/12/10 01:29:47;;;;;;;15.05;9.38;;;;;;;1.45;100.00;97380.28;4928909;28;20596;-83
2022/12/10 01:32:32;;;;;;;14.07;9.48;;;;;;;1.43;100.00;97393.28;4933538;28;20066;-85
2022/12/10 01:35:18;;;;;;;15.57;9.77;;;;;;;1.36;100.00;97407.41;4945961;28;20047;-84
2022/12/10 01:38:02;;;;;;;14.65;9.75;;;;;;;1.32;100.00;97411.88;4904998;28;20066;-85
2022/12/10 01:40:47;;;;;;;14.57;9.85;;;;;;;1.32;100.00;97406.72;4943701;28;20047;-85
2022/12/10 01:44:07;;;;;;;12.52;8.93;;;;;;;1.31;100.00;97409.38;4929525;28;20050;-84
2022/12/10 01:46:57;;;;;;;14.13;10.18;;;;;;;1.21;100.00;97424.50;4918203;28;20047;-83
2022/12/10 01:49:42;;;;;;;13.45;9.40;;;;;;;1.19;100.00;97411.69;4947134;28;20353;-85
2022/12/10 01:52:31;;;;;;;14.18;9.73;;;;;;;1.11;100.00;97408.66;4941959;28;20222;-84
2022/12/10 01:55:46;;;;;;;14.23;9.50;;;;;;;1.19;100.00;97398.78;4918180;28;20047;-85
2022/12/10 01:58:32;;;;;;;13.18;9.48;;;;;;;1.16;100.00;97403.31;4947657;28;20511;-83
2022/12/10 02:01:52;;;;;;;15.73;10.20;;;;;;;0.97;100.00;97392.19;4947915;28;20462;-85
2022/12/10 02:05:01;;;;;;;14.98;9.85;;;;;;;0.91;100.00;97407.13;4942913;28;20059;-84
2022/12/10 02:07:58;;;;;;;13.13;9.30;;;;;;;0.85;100.00;97398.78;4946574;28;20043;-85
2022/12/10 02:11:16;;;;;;;11.38;8.65;;;;;;;0.77;100.00;97413.81;4944115;28;20566;-87
2022/12/10 02:14:40;;;;;;;14.05;9.32;;;;;;;1.04;100.00;97418.50;4946474;28;20089;-85
2022/12/10 02:21:06;;;;;;;11.77;8.15;;;;;;;1.10;100.00;97410.44;4945612;28;20039;-84
2022/12/10 02:24:05;;;;;;;11.82;8.23;;;;;;;0.97;100.00;97412.81;4945464;28;20035;-86
2022/12/10 02:26:53;;;;;;;13.52;8.27;;;;;;;1.02;100.00;97422.06;4931968;28;20138;-87
2022/12/10 02:29:39;;;;;;;11.82;8.18;;;;;;;0.94;100.00;97435.34;4944666;28;20066;-84
2022/12/10 02:32:32;;;;;;;13.13;8.63;;;;;;;0.89;100.00;97439.91;4917989;28;20462;-83
2022/12/10 02:35:28;;;;;;;11.85;8.07;;;;;;;1.06;100.00;97450.19;4931812;28;20055;-84
2022/12/10 02:38:23;;;;;;;12.15;7.90;;;;;;;1.24;100.00;97455.31;4949686;28;22016;-82
2022/12/10 02:41:16;;;;;;;12.52;8.45;;;;;;;1.07;100.00;97463.94;4933617;28;20043;-84
2022/12/10 02:44:06;;;;;;;12.10;7.95;;;;;;;1.18;100.00;97453.06;4932100;28;20063;-85
2022/12/10 02:46:55;;;;;;;13.52;8.38;;;;;;;1.17;100.00;97434.19;4946453;28;20047;-83
2022/12/10 02:49:56;;;;;;;11.00;7.38;;;;;;;1.27;100.00;97446.59;4946573;28;20114;-85
2022/12/10 02:52:41;;;;;;;13.75;8.70;;;;;;;0.99;100.00;97438.53;4938419;28;20666;-83
2022/12/10 02:55:26;;;;;;;13.82;9.00;;;;;;;1.16;100.00;97435.06;4935860;28;20051;-85
2022/12/10 02:58:29;;;;;;;11.75;8.45;;;;;;;1.07;100.00;97438.13;4934374;28;20038;-83
2022/12/10 03:01:32;;;;;;;12.90;8.55;;;;;;;1.26;100.00;97435.44;4916629;28;20044;-84
2022/12/10 03:04:44;;;;;;;12.13;7.88;;;;;;;1.13;100.00;97434.41;4924839;28;20059;-85
2022/12/10 03:07:37;;;;;;;11.27;8.30;;;;;;;1.02;100.00;97447.84;4949664;28;20074;-83
2022/12/10 03:10:32;;;;;;;11.45;8.10;;;;;;;1.29;100.00;97468.81;4951837;28;20044;-84
2022/12/10 03:13:20;;;;;;;12.95;8.23;;;;;;;1.39;100.00;97456.28;4934883;28;20477;-83
2022/12/10 03:16:05;;;;;;;14.82;9.10;;;;;;;1.31;100.00;97454.09;4933490;28;20105;-85
2022/12/10 03:18:55;;;;;;;13.27;9.00;;;;;;;1.13;100.00;97455.88;4933519;28;20063;-84
2022/12/10 03:21:42;;;;;;;11.10;8.63;;;;;;;1.01;100.00;97448.78;4948273;28;20496;-84
2022/12/10 03:24:27;;;;;;;13.02;8.75;;;;;;;0.97;100.00;97443.75;4947042;28;20393;-85
2022/12/10 03:27:15;;;;;;;11.93;8.52;;;;;;;1.07;100.00;97457.03;4948769;28;20047;-84
2022/12/10 03:30:00;;;;;;;14.50;9.70;;;;;;;1.00;100.00;97449.69;4935092;28;20051;-84
2022/12/10 03:32:46;;;;;;;14.18;9.13;;;;;;;0.84;100.00;97445.28;4935133;28;20484;-84
2022/12/10 03:35:31;;;;;;;13.90;9.48;;;;;;;1.14;100.00;97456.72;4914223;28;20424;-82
2022/12/10 03:38:16;;;;;;;14.63;9.10;;;;;;;1.13;100.00;97461.03;4954105;28;20034;-85
2022/12/10 03:45:22;;;;;;;14.02;9.30;;;;;;;1.05;100.00;97466.59;4906350;29;20052;-85
2022/12/10 03:48:37;;;;;;;13.32;8.32;;;;;;;1.06;100.00;97472.59;4890826;29;20128;-76
2022/12/10 03:51:25;;;;;;;14.35;9.73;;;;;;;1.54;100.00;97477.88;4902344;29;20097;-81
2022/12/10 03:54:10;;;;;;;11.77;8.65;;;;;;;1.68;100.00;97479.75;4895431;29;20060;-82
2022/12/10 03:56:55;;;;;;;12.15;8.20;;;;;;;1.52;100.00;97479.72;4905282;29;20071;-83
2022/12/10 03:59:39;;;;;;;13.40;9.43;;;;;;;1.02;100.00;97482.22;4897900;29;20135;-87
2022/12/10 04:02:25;;;;;;;12.88;8.90;;;;;;;1.39;100.00;97494.19;4908560;29;20386;-86
2022/12/10 04:05:10;;;;;;;14.15;7.57;;;;;;;1.28;100.00;97494.72;4876950;29;20408;-81
2022/12/10 04:07:55;;;;;;;14.48;9.23;;;;;;;1.14;100.00;97483.38;4871822;29;20071;-84
2022/12/10 04:10:39;;;;;;;13.45;8.77;;;;;;;1.08;100.00;97478.50;4894882;29;20064;-87
2022/12/10 04:16:29;;;;;;;13.77;9.02;;;;;;;0.90;100.00;97450.13;4928640;29;20316;-87
2022/12/10 04:19:17;;;;;;;13.32;8.65;;;;;;;0.93;100.00;97459.47;4914195;29;20059;-86
2022/12/10 04:28:13;;;;;;;12.45;8.15;;;;;;;0.88;100.00;97484.66;4913779;29;20055;-85
2022/12/10 04:30:59;;;;;;;14.23;8.70;;;;;;;0.81;100.00;97481.53;4901916;29;20043;-85
2022/12/10 04:33:43;;;;;;;12.55;8.48;;;;;;;0.78;100.00;97486.84;4912358;29;20071;-87
2022/12/10 04:36:30;;;;;;;16.02;8.90;;;;;;;0.78;100.00;97487.69;4921544;29;20062;-85
2022/12/10 04:39:18;;;;;;;14.95;8.60;;;;;;;0.85;100.00;97480.47;4896486;29;20071;-85
2022/12/10 04:42:03;;;;;;;12.65;8.50;;;;;;;0.71;100.00;97481.16;4923149;28;20059;-86
2022/12/10 04:44:51;;;;;;;12.48;8.73;;;;;;;0.66;100.00;97483.13;4950029;28;20055;-85
2022/12/10 04:47:37;;;;;;;12.20;8.25;;;;;;;0.71;100.00;97481.16;4961957;28;20107;-84
2022/12/10 04:50:22;;;;;;;15.52;9.63;;;;;;;0.79;100.00;97481.63;4947526;28;20067;-83
2022/12/10 04:53:09;;;;;;;12.93;8.02;;;;;;;0.92;100.00;97478.41;4959522;28;20047;-84
2022/12/10 04:55:54;;;;;;;14.50;8.73;;;;;;;0.69;100.00;97470.91;4958612;28;20039;-83
2022/12/10 04:58:40;;;;;;;12.63;8.48;;;;;;;0.58;100.00;97474.03;4962164;28;20047;-83
2022/12/10 05:01:27;;;;;;;15.77;9.00;;;;;;;0.72;100.00;97464.75;4946937;28;20039;-84
2022/12/10 05:04:14;;;;;;;14.40;8.68;;;;;;;0.47;100.00;97469.38;4945794;28;20051;-85
2022/12/10 05:06:59;;;;;;;14.13;8.35;;;;;;;0.54;100.00;97457.03;4931736;28;20311;-86
2022/12/10 05:09:44;;;;;;;14.25;8.90;;;;;;;0.53;100.00;97457.94;4940991;28;20046;-85
2022/12/10 05:12:29;;;;;;;13.38;8.60;;;;;;;0.44;100.00;97461.78;4937695;28;20063;-88
2022/12/10 05:15:14;;;;;;;15.63;9.23;;;;;;;0.44;100.00;97466.94;4950680;28;20135;-86
2022/12/10 05:17:58;;;;;;;14.85;9.73;;;;;;;0.52;100.00;97471.75;4950057;28;20071;-86
2022/12/10 05:20:44;;;;;;;17.08;9.75;;;;;;;0.45;100.00;97453.16;4946776;28;20125;-87
2022/12/10 05:23:29;;;;;;;16.35;9.90;;;;;;;0.44;100.00;97438.59;4948436;28;20126;-86
2022/12/10 05:26:17;;;;;;;15.02;9.65;;;;;;;0.33;100.00;97436.53;4933618;28;20623;-86
2022/12/10 05:29:02;;;;;;;16.85;10.90;;;;;;;0.35;100.00;97439.03;4921565;28;20081;-87
2022/12/10 05:31:47;;;;;;;15.95;10.20;;;;;;;0.39;100.00;97425.13;4917486;28;20091;-87
2022/12/10 05:34:32;;;;;;;16.90;10.85;;;;;;;0.36;100.00;97428.66;4932992;28;20175;-86
2022/12/10 05:37:19;;;;;;;17.05;10.75;;;;;;;0.36;100.00;97413.19;4932245;29;20456;-86
2022/12/10 05:40:05;;;;;;;18.23;11.27;;;;;;;0.43;100.00;97420.63;4915286;28;20051;-87
2022/12/10 05:42:51;;;;;;;18.08;11.30;;;;;;;0.46;100.00;97418.75;4920179;28;20058;-87
2022/12/10 05:45:36;;;;;;;15.43;9.70;;;;;;;0.55;100.00;97435.50;4940983;28;20153;-88
2022/12/10 05:48:21;;;;;;;14.98;9.43;;;;;;;0.52;100.00;97430.50;4930250;28;20043;-83
2022/12/10 05:51:08;;;;;;;16.27;10.15;;;;;;;0.61;100.00;97437.78;4923096;28;20039;-84
2022/12/10 05:53:53;;;;;;;15.52;9.90;;;;;;;0.68;100.00;97438.31;4938099;28;20046;-81
2022/12/10 05:56:38;;;;;;;16.05;9.35;;;;;;;0.70;100.00;97453.72;4946615;28;20535;-81
2022/12/10 05:59:22;;;;;;;17.30;10.35;;;;;;;0.64;100.00;97454.03;4944369;28;20073;-81
2022/12/10 06:02:07;;;;;;;14.23;8.65;;;;;;;0.85;100.00;97460.69;4947610;28;20577;-83
2022/12/10 06:04:52;;;;;;;15.80;10.30;;;;;;;1.13;100.00;97455.06;4942249;28;20118;-81
2022/12/10 06:07:38;;;;;;;17.17;10.18;;;;;;;1.26;100.00;97461.25;4931801;28;20043;-80
2022/12/10 06:10:23;;;;;;;15.75;9.40;;;;;;;1.06;100.00;97467.44;4941520;28;20377;-79
2022/12/10 06:13:08;;;;;;;12.93;7.15;;;;;;;1.84;100.00;97471.19;4946546;28;20540;-83
2022/12/10 06:15:52;;;;;;;12.13;7.72;;;;;;;2.11;100.00;97480.09;4942613;28;20122;-84
2022/12/10 06:18:38;;;;;;;12.38;7.97;;;;;;;2.06;100.00;97485.53;4946789;28;20552;-83
2022/12/10 06:21:23;;;;;;;13.10;7.95;;;;;;;1.55;100.00;97496.81;4949068;28;20118;-82
2022/12/10 06:24:08;;;;;;;15.25;7.68;;;;;;;2.19;100.00;97493.44;4931653;28;20060;-83
2022/12/10 06:26:53;;;;;;;12.00;8.05;;;;;;;1.93;100.00;97504.28;4944984;28;20042;-83
2022/12/10 06:29:38;;;;;;;12.50;6.97;;;;;;;1.75;100.00;97524.16;4944729;28;20043;-83
2022/12/10 06:32:26;;;;;;;11.57;7.10;;;;;;;2.13;100.00;97528.22;4924257;28;20046;-85
2022/12/10 06:35:11;;;;;;;13.95;7.65;;;;;;;2.11;100.00;97537.78;4952007;28;20051;-82
2022/12/10 06:37:59;;;;;;;21.90;7.40;;;;;;;2.24;100.00;97548.31;4939904;28;20051;-85
2022/12/10 06:40:44;;;;;;;13.27;8.65;;;;;;;2.14;100.00;97544.56;4943846;28;20256;-83
2022/12/10 06:43:31;;;;;;;12.05;7.57;;;;;;;2.34;100.00;97546.06;4926103;28;20711;-83
2022/12/10 06:46:20;;;;;;;11.65;7.28;;;;;;;2.14;100.00;97545.38;4932245;28;20111;-84
2022/12/10 06:49:05;;;;;;;12.82;7.50;;;;;;;1.67;100.00;97546.97;4931345;28;20512;-81
2022/12/10 06:51:51;;;;;;;12.77;8.05;;;;;;;1.91;100.00;97554.38;4927899;28;20077;-81
2022/12/10 06:54:37;;;;;;;11.27;7.00;;;;;;;1.88;100.00;97541.63;4945604;28;20127;-85
2022/12/10 06:57:23;;;;;;;12.90;8.32;;;;;;;1.93;100.00;97540.44;4934413;28;20043;-83
2022/12/10 07:00:08;;;;;;;14.05;8.05;;;;;;;2.15;100.00;97534.13;4945746;28;20400;-83
2022/12/10 07:02:53;;;;;;;14.48;9.25;;;;;;;1.50;100.00;97517.69;4949644;28;20627;-80
2022/12/10 07:05:37;;;;;;;13.85;8.60;;;;;;;1.92;100.00;97530.19;4943055;28;20408;-80
2022/12/10 07:08:26;;;;;;;21.80;10.00;;;;;;;2.62;100.00;97520.44;4947110;28;20062;-87
2022/12/10 07:11:24;;;;;;;19.25;8.23;;;;;;;4.30;100.00;97502.00;4945709;28;20055;-85
2022/12/10 07:14:15;;;;;;;16.48;8.77;;;;;;;2.99;100.00;97509.78;4931022;28;20055;-86
2022/12/10 07:17:02;;;;;;;13.10;9.13;;;;;;;1.90;100.00;97519.09;4949465;28;20638;-86
2022/12/10 07:19:51;;;;;;;14.45;8.77;;;;;;;1.17;100.00;97523.66;4949149;28;20086;-84
2022/12/10 07:22:36;;;;;;;13.35;8.95;;;;;;;1.80;100.00;97521.31;4937016;28;20054;-84
2022/12/10 07:25:21;;;;;;;15.23;8.80;;;;;;;1.95;100.00;97515.38;4948183;28;20863;-80
2022/12/10 07:28:06;;;;;;;14.48;9.45;;;;;;;1.59;100.00;97512.06;4954301;28;20050;-82
2022/12/10 07:30:50;;;;;;;13.63;8.82;;;;;;;1.39;100.00;97515.66;4953897;28;20039;-78
2022/12/10 07:33:36;;;;;;;14.85;9.02;;;;;;;1.53;100.00;97496.88;4952039;28;20066;-82
2022/12/10 07:36:22;;;;;;;14.40;8.48;;;;;;;1.31;100.00;97485.06;4952791;28;20051;-78
2022/12/10 07:39:08;;;;;;;13.35;8.75;;;;;;;1.67;100.00;97485.81;4949202;28;20121;-78
2022/12/10 07:41:53;;;;;;;15.48;9.10;;;;;;;1.69;100.00;97478.84;4948338;28;20043;-80
2022/12/10 07:44:38;;;;;;;16.13;9.95;;;;;;;1.34;100.00;97482.34;4938582;28;20102;-81
2022/12/10 07:47:23;;;;;;;14.00;8.82;;;;;;;1.59;100.00;97488.81;4936248;28;20158;-79
2022/12/10 07:50:08;;;;;;;12.77;8.70;;;;;;;1.48;100.00;97491.94;4946026;28;20051;-79
2022/12/10 07:52:52;;;;;;;13.52;8.55;;;;;;;1.31;100.00;97490.22;4950866;28;20047;-77
2022/12/10 07:55:38;;;;;;;12.43;8.32;;;;;;;1.18;100.00;97479.72;4932274;28;20061;-79
2022/12/10 07:58:23;;;;;;;14.45;9.68;;;;;;;1.12;100.00;97485.19;4949555;28;20130;-85
2022/12/10 08:01:13;;;;;;;16.40;9.15;;;;;;;1.05;100.00;97479.50;4953287;28;20509;-84
2022/12/10 08:03:58;;;;;;;14.85;9.48;;;;;;;0.90;100.00;97469.94;4949086;28;20054;-81
2022/12/10 08:06:43;;;;;;;14.57;9.75;;;;;;;0.79;100.00;97461.00;4946884;28;20043;-83
2022/12/10 08:09:28;;;;;;;15.55;9.68;;;;;;;1.12;100.00;97481.75;4920060;28;20047;-83
2022/12/10 08:12:13;;;;;;;14.43;9.50;;;;;;;1.18;100.00;97484.03;4949109;28;20078;-82
2022/12/10 08:14:58;;;;;;;15.55;10.18;;;;;;;1.20;100.00;97497.69;4919118;29;20059;-85
2022/12/10 08:17:43;;;;;;;16.42;8.73;;;;;;;1.10;100.00;97503.31;4926062;29;20055;-82
2022/12/10 08:20:28;;;;;;;14.68;8.93;;;;;;;1.54;100.00;97510.59;4900021;29;20051;-82
2022/12/10 08:23:13;;;;;;;17.42;9.50;;;;;;;1.42;100.00;97504.34;4927387;29;20363;-80
2022/12/10 08:25:57;;;;;;;14.82;9.15;;;;;;;1.43;100.00;97509.44;4928373;29;20577;-84
2022/12/10 08:28:42;;;;;;;15.30;9.80;;;;;;;1.39;100.00;97520.81;4929941;29;20075;-85
2022/12/10 08:31:28;;;;;;;16.50;7.53;;;;;;;1.29;100.00;97523.03;4926134;28;20059;-84
2022/12/10 08:34:15;;;;;;;21.73;8.27;;;;;;;2.04;100.00;97516.59;4927764;29;20870;-83
2022/12/10 08:36:59;;;;;;;13.27;8.68;;;;;;;1.93;100.00;97524.94;4925602;29;20048;-83
2022/12/10 08:39:44;;;;;;;15.75;9.68;;;;;;;1.66;100.00;97516.91;4928173;29;20429;-84
2022/12/10 08:42:29;;;;;;;14.10;8.93;;;;;;;1.80;100.00;97514.41;4912795;29;20047;-83
2022/12/10 08:45:13;;;;;;;16.73;10.20;;;;;;;1.62;100.00;97494.75;4919277;29;20070;-82
2022/12/10 08:47:58;;;;;;;15.10;9.50;;;;;;;1.48;100.00;97494.53;4930063;29;20178;-85
2022/12/10 08:50:43;;;;;;;14.27;7.97;;;;;;;1.69;100.00;97496.91;4926979;29;20142;-83
2022/12/10 08:53:27;;;;;;;17.13;10.18;;;;;;;1.32;100.00;97501.41;4949549;28;20055;-87
2022/12/10 08:56:12;;;;;;;17.48;10.77;;;;;;;1.27;100.00;97501.63;4948541;28;20055;-83
2022/12/10 08:58:56;;;;;;;16.52;10.85;;;;;;;1.10;100.00;97495.56;4951841;28;20050;-83
2022/12/10 09:01:41;;;;;;;17.73;10.07;;;;;;;1.42;100.00;97507.75;4933770;28;20062;-83
2022/12/10 09:04:27;;;;;;;17.15;10.43;;;;;;;1.68;100.00;97509.91;4946248;28;20051;-84
2022/12/10 09:07:12;;;;;;;18.77;10.93;;;;;;;1.64;100.00;97516.97;4950402;28;20408;-83
2022/12/10 09:09:57;;;;;;;18.38;8.90;;;;;;;1.67;100.00;97529.72;4948512;28;20167;-84
2022/12/10 09:12:42;;;;;;;16.88;9.85;;;;;;;1.46;100.00;97548.00;4946490;28;20049;-84
2022/12/10 09:15:27;;;;;;;17.58;10.02;;;;;;;2.41;100.00;97543.97;4944924;28;20046;-80
2022/12/10 09:18:12;;;;;;;16.08;9.68;;;;;;;2.44;100.00;97536.88;4953991;28;20682;-82
2022/12/10 09:20:56;;;;;;;15.55;9.57;;;;;;;1.78;100.00;97533.50;4955451;28;20093;-79
2022/12/10 09:23:42;;;;;;;16.90;10.18;;;;;;;1.67;100.00;97540.06;4953018;28;20054;-83
2022/12/10 09:26:27;;;;;;;14.23;8.98;;;;;;;1.90;100.00;97547.50;4951481;28;20557;-83
2022/12/10 09:29:11;;;;;;;17.27;10.32;;;;;;;2.00;100.00;97540.94;4945455;28;20047;-81
2022/12/10 09:31:57;;;;;;;18.13;10.75;;;;;;;1.71;100.00;97535.56;4949794;28;20047;-83
2022/12/10 09:34:43;;;;;;;19.27;12.20;;;;;;;2.29;100.00;97533.38;4946639;28;20058;-83
2022/12/10 09:37:28;;;;;;;18.70;12.48;;;;;;;2.29;100.00;97525.63;4947811;28;20059;-84
2022/12/10 09:40:19;;;;;;;18.00;10.52;;;;;;;1.80;100.00;97534.25;4932290;28;20083;-86
2022/12/10 09:43:16;;;;;;;17.52;11.07;;;;;;;1.81;100.00;97534.16;4934338;28;20052;-85
2022/12/10 09:46:38;;;;;;;19.08;11.30;;;;;;;1.95;100.00;97527.44;4898670;29;20087;-84
2022/12/10 09:49:41;;;;;;;15.35;10.48;;;;;;;2.94;100.00;97512.59;4924502;29;20051;-84
2022/12/10 09:52:37;;;;;;;15.25;10.02;;;;;;;3.55;100.00;97520.31;4917450;29;20171;-89
2022/12/10 09:55:31;;;;;;;17.70;10.55;;;;;;;3.06;100.00;97522.25;4924263;29;20047;-87
2022/12/10 09:58:26;;;;;;;18.65;11.25;;;;;;;3.97;100.00;97527.31;4916863;29;20055;-79
2022/12/10 10:01:15;;;;;;;16.10;8.55;;;;;;;4.03;100.00;97515.75;4895858;29;20075;-81
2022/12/10 10:04:03;;;;;;;15.85;9.93;;;;;;;4.22;100.00;97512.84;4918650;29;20071;-86
2022/12/10 10:06:48;;;;;;;15.68;9.70;;;;;;;3.56;100.00;97526.28;4899679;29;20044;-86
2022/12/10 10:09:38;;;;;;;16.40;10.15;;;;;;;2.99;100.00;97523.53;4892283;29;20336;-88
2022/12/10 10:12:27;;;;;;;17.33;10.57;;;;;;;2.98;100.00;97527.03;4921622;29;20052;-87
2022/12/10 10:15:18;;;;;;;19.70;11.23;;;;;;;2.53;100.00;97508.88;4926228;29;20058;-85
2022/12/10 10:18:29;;;;;;;18.95;11.15;;;;;;;2.28;100.00;97525.72;4912079;29;20075;-89
2022/12/10 10:21:38;;;;;;;14.52;8.65;;;;;;;4.30;100.00;97527.91;4933512;29;20061;-86
2022/12/10 10:24:33;;;;;;;18.13;10.18;;;;;;;4.01;100.00;97525.38;4930470;29;20032;-90
2022/12/10 10:27:43;;;;;;;13.70;8.82;;;;;;;4.47;100.00;97524.28;4915098;29;20044;-89
2022/12/10 10:30:33;;;;;;;15.57;9.45;;;;;;;4.13;100.00;97521.22;4866687;29;20092;-88
2022/12/10 10:33:20;;;;;;;16.70;9.35;;;;;;;3.86;100.00;97522.81;4872348;29;20123;-89
2022/12/10 10:36:06;;;;;;;17.15;9.40;;;;;;;3.61;100.00;97526.84;4864333;29;20057;-87
2022/12/10 10:38:52;;;;;;;18.42;11.27;;;;;;;3.55;100.00;97520.31;4857426;29;20057;-88
2022/12/10 10:41:41;;;;;;;17.35;10.60;;;;;;;2.56;100.00;97521.63;4849390;29;20053;-90
2022/12/10 10:44:34;;;;;;;19.92;11.73;;;;;;;1.80;100.00;97523.91;4839105;29;20056;-85
2022/12/10 10:47:29;;;;;;;19.38;10.82;;;;;;;2.18;100.00;97504.69;4874446;29;20085;-87
2022/12/10 10:50:25;;;;;;;18.00;10.38;;;;;;;1.90;100.00;97495.84;4846751;29;20147;-82
2022/12/10 10:53:39;;;;;;;22.00;12.27;;;;;;;1.86;100.00;97490.00;4883028;29;20075;-84
2022/12/10 10:56:26;;;;;;;21.00;12.45;;;;;;;1.57;100.00;97479.47;4880502;29;20056;-83
2022/12/10 10:59:15;;;;;;;21.15;11.98;;;;;;;1.99;100.00;97473.88;4883925;29;21171;-84
2022/12/10 11:02:17;;;;;;;18.75;11.65;;;;;;;1.92;100.00;97465.59;4886814;29;20052;-83
2022/12/10 11:05:30;;;;;;;20.08;11.75;;;;;;;1.96;100.00;97477.44;4884523;29;20053;-83
2022/12/10 11:08:20;;;;;;;20.17;12.27;;;;;;;1.95;100.00;97458.53;4924788;29;20064;-83
2022/12/10 11:11:11;;;;;;;20.42;11.70;;;;;;;1.72;100.00;97450.28;4913068;29;20044;-85
2022/12/10 11:14:24;;;;;;;20.77;11.93;;;;;;;1.88;100.00;97453.78;4927133;29;20569;-83
2022/12/10 11:17:09;;;;;;;20.40;11.52;;;;;;;2.01;100.00;97448.78;4925507;29;20056;-81
2022/12/10 11:20:19;;;;;;;18.88;10.90;;;;;;;2.03;100.00;97460.69;4922354;29;20771;-81
2022/12/10 11:23:11;;;;;;;18.90;11.30;;;;;;;2.04;100.00;97467.50;4914549;29;20055;-84
2022/12/10 11:26:17;;;;;;;20.17;11.85;;;;;;;2.06;100.00;97457.94;4904747;29;20339;-84
2022/12/10 11:29:18;;;;;;;16.67;10.55;;;;;;;2.08;100.00;97466.44;4913988;29;20123;-84
2022/12/10 11:32:04;;;;;;;20.23;11.43;;;;;;;1.81;100.00;97468.78;4925181;29;20051;-83
2022/12/10 11:35:14;;;;;;;19.58;10.73;;;;;;;1.66;100.00;97458.34;4929513;29;20044;-82
2022/12/10 11:38:34;;;;;;;18.90;10.95;;;;;;;1.76;100.00;97447.53;4914031;29;20075;-83
2022/12/10 11:41:45;;;;;;;20.40;9.20;;;;;;;3.50;100.00;97462.75;4926986;29;20470;-83
2022/12/10 11:44:32;;;;;;;15.32;8.93;;;;;;;2.57;100.00;97458.63;4849226;29;20076;-78
2022/12/10 11:47:34;;;;;;;20.25;11.57;;;;;;;2.42;100.00;97439.63;4876542;29;20080;-83
2022/12/10 11:50:34;;;;;;;20.13;11.70;;;;;;;1.80;100.00;97443.84;4857611;29;20049;-78
2022/12/10 11:53:50;;;;;;;20.20;12.40;;;;;;;1.78;100.00;97441.34;4865101;29;20057;-81
2022/12/10 11:56:46;;;;;;;19.45;11.52;;;;;;;1.71;100.00;97447.78;4849975;29;20057;-83
2022/12/10 11:59:35;;;;;;;18.33;11.25;;;;;;;1.74;100.00;97439.84;4876536;29;20681;-82
2022/12/10 12:02:41;;;;;;;20.40;12.07;;;;;;;1.98;100.00;97444.59;4862691;29;20093;-85
2022/12/10 12:05:46;;;;;;;19.80;12.23;;;;;;;1.69;100.00;97444.44;4874749;29;20145;-86
2022/12/10 12:08:53;;;;;;;19.45;11.98;;;;;;;1.43;100.00;97444.06;4872001;29;20061;-83
2022/12/10 12:12:12;;;;;;;21.58;13.77;;;;;;;1.49;100.00;97443.72;4875723;29;20088;-83
2022/12/10 12:15:02;;;;;;;18.05;11.43;;;;;;;1.66;100.00;97434.25;4859844;29;20098;-82
2022/12/10 12:17:54;;;;;;;19.58;11.98;;;;;;;1.78;100.00;97437.94;4881486;29;20424;-84
2022/12/10 12:21:01;;;;;;;21.35;12.45;;;;;;;1.69;100.00;97432.34;4895597;28;20062;-83
2022/12/10 12:24:11;;;;;;;21.10;12.15;;;;;;;1.48;100.00;97435.16;4949468;28;20042;-86
2022/12/10 12:27:02;;;;;;;22.90;13.05;;;;;;;1.52;100.00;97437.59;4933163;28;20062;-87
2022/12/10 12:30:00;;;;;;;22.15;12.80;;;;;;;1.69;100.00;97436.69;4933571;28;20035;-85
2022/12/10 12:33:32;;;;;;;24.13;13.52;;;;;;;1.60;100.00;97438.84;4919925;28;20051;-86
2022/12/10 12:36:36;;;;;;;21.05;12.38;;;;;;;1.46;100.00;97439.56;4908695;28;20058;-87
2022/12/10 12:39:25;;;;;;;19.35;11.73;;;;;;;1.18;100.00;97446.16;4911227;28;20976;-88
2022/12/10 12:42:31;;;;;;;21.20;13.20;;;;;;;1.30;100.00;97436.97;4947151;28;20043;-86
2022/12/10 12:45:31;;;;;;;20.20;12.20;;;;;;;1.29;100.00;97427.53;4946721;28;20122;-85
2022/12/10 12:48:39;;;;;;;22.20;13.68;;;;;;;0.96;100.00;97430.94;4951013;28;20099;-85
2022/12/10 12:51:27;;;;;;;20.85;12.40;;;;;;;1.20;100.00;97440.91;4931334;28;20098;-86
2022/12/10 12:54:15;;;;;;;21.30;13.80;;;;;;;1.17;100.00;97443.66;4935260;28;20130;-86
2022/12/10 12:57:18;;;;;;;20.42;12.48;;;;;;;0.99;100.00;97430.78;4933512;28;20423;-84
2022/12/10 13:00:10;;;;;;;23.90;13.93;;;;;;;0.91;100.00;97433.75;4942016;28;20051;-86
2022/12/10 13:02:58;;;;;;;;;;;;;;;1.02;100.00;97430.63;4924106;28;20051;-85
2022/12/10 13:05:43;;;;;;;22.00;12.90;;;;;;;1.05;100.00;97433.06;4930475;28;20008;-85
2022/12/10 13:08:41;;;;;;;24.98;13.15;;;;;;;1.18;100.00;97433.25;4939481;28;20413;-87
2022/12/10 13:11:32;;;;;;;20.60;13.02;;;;;;;1.24;100.00;97452.75;4950366;28;20047;-86
2022/12/10 13:14:30;;;;;;;22.70;13.43;;;;;;;0.96;100.00;97446.44;4949625;28;20102;-86
2022/12/10 13:17:47;;;;;;;23.73;14.35;;;;;;;1.01;100.00;97454.78;4959361;28;20307;-85
2022/12/10 13:21:28;;;;;;;23.65;14.13;;;;;;;0.93;100.00;97454.31;4937700;28;20055;-82
2022/12/10 13:24:19;;;;;;;23.08;12.80;;;;;;;1.04;100.00;97451.19;4946081;28;20086;-79
2022/12/10 13:27:37;;;;;;;19.77;12.95;;;;;;;1.47;100.00;97446.38;4923779;28;20817;-89